Time;durP1;ratioP1;P1;durP2;ratioP2;P2;SDS_P1;SDS_P2;PMS_P1;PMS_P2;Temp;Humidity;BMP_temperature;BMP_pressure;BME280_temperature;BME280_humidity;BME280_pressure;Samples;Min_cycle;Max_cycle;Signal;HPM_P1;HPM_P2
2023/06/05 00:01:26;;;;;;;6.93;1.83;;;;;;;16.28;39.84;100334.31;5006410;28;20234;-84
2023/06/05 00:03:53;;;;;;;2.63;1.80;;;;;;;16.28;40.16;100339.50;5017415;28;20737;-81
2023/06/05 00:06:18;;;;;;;3.40;1.83;;;;;;;16.23;39.92;100341.63;5004971;28;20186;-82
2023/06/05 00:08:43;;;;;;;2.43;2.10;;;;;;;16.18;40.73;100339.34;5012128;28;20175;-79
2023/06/05 00:11:09;;;;;;;2.80;1.87;;;;;;;16.08;40.23;100338.41;5005790;28;20226;-83
2023/06/05 00:13:34;;;;;;;3.77;2.10;;;;;;;16.02;41.25;100337.06;5020033;28;20677;-84
2023/06/05 00:16:02;;;;;;;4.53;3.37;;;;;;;15.90;41.95;100337.97;5006280;28;20214;-81
2023/06/05 00:18:28;;;;;;;4.77;3.37;;;;;;;15.73;43.95;100336.59;5012381;28;20727;-78
2023/06/05 00:20:53;;;;;;;5.33;3.83;;;;;;;15.54;46.00;100342.25;5010677;28;20241;-85
2023/06/05 00:23:18;;;;;;;5.47;3.37;;;;;;;15.40;47.42;100335.47;5020434;28;20246;-81
2023/06/05 00:25:43;;;;;;;4.50;3.67;;;;;;;15.29;47.34;100333.63;5013609;28;20181;-82
2023/06/05 00:28:09;;;;;;;7.07;2.97;;;;;;;15.13;47.92;100329.56;5008621;28;20643;-81
2023/06/05 00:30:35;;;;;;;7.93;3.20;;;;;;;14.96;48.49;100330.72;4993662;28;20226;-77
2023/06/05 00:33:00;;;;;;;8.17;4.93;;;;;;;14.81;49.81;100330.03;5015403;28;20654;-77
2023/06/05 00:35:26;;;;;;;3.03;2.70;;;;;;;14.68;51.33;100326.59;5012882;28;20274;-80
2023/06/05 00:37:51;;;;;;;3.50;2.63;;;;;;;14.52;52.94;100325.03;5015151;28;20472;-82
2023/06/05 00:40:16;;;;;;;5.67;3.33;;;;;;;14.49;53.89;100322.66;5004961;28;20175;-83
2023/06/05 00:42:42;;;;;;;3.13;2.60;;;;;;;14.38;53.88;100326.91;5012334;28;20202;-82
2023/06/05 00:45:07;;;;;;;5.23;4.30;;;;;;;14.22;54.88;100327.91;5012740;28;20622;-81
2023/06/05 00:47:34;;;;;;;4.53;2.87;;;;;;;14.20;55.27;100319.41;5009451;28;20194;-82
2023/06/05 00:50:00;;;;;;;6.13;3.20;;;;;;;14.15;55.31;100324.06;5011672;28;20194;-79
2023/06/05 00:52:26;;;;;;;5.70;2.40;;;;;;;14.08;56.36;100318.47;5002089;28;20578;-78
2023/06/05 00:54:51;;;;;;;4.53;3.70;;;;;;;14.00;58.46;100318.13;5010768;28;20530;-77
2023/06/05 00:57:17;;;;;;;3.30;2.90;;;;;;;13.87;58.95;100323.28;5013155;28;20236;-87
2023/06/05 00:59:44;;;;;;;4.00;2.60;;;;;;;13.85;60.28;100322.56;5007761;28;20187;-80
2023/06/05 01:02:10;;;;;;;2.40;2.10;;;;;;;13.83;59.88;100316.66;5008490;28;20272;-80
2023/06/05 01:04:36;;;;;;;2.53;2.20;;;;;;;13.77;60.14;100322.22;5002607;28;20383;-80
2023/06/05 01:07:02;;;;;;;4.23;2.00;;;;;;;13.68;62.36;100318.47;5012517;28;20183;-80
2023/06/05 01:09:30;;;;;;;4.60;1.67;;;;;;;13.61;63.28;100312.88;5013388;28;20227;-80
2023/06/05 01:12:06;;;;;;;3.20;2.17;;;;;;;13.48;64.30;100311.97;5017111;28;20234;-78
2023/06/05 01:14:35;;;;;;;2.40;1.60;;;;;;;13.40;66.12;100312.47;5027826;28;20183;-77
2023/06/05 01:17:03;;;;;;;2.60;1.80;;;;;;;13.36;66.68;100316.16;5010855;28;20186;-78
2023/06/05 01:19:30;;;;;;;2.73;2.20;;;;;;;13.39;67.83;100309.03;5011877;28;20191;-79
2023/06/05 01:21:56;;;;;;;2.77;2.10;;;;;;;13.29;66.57;100317.47;5016782;28;20256;-79
2023/06/05 01:24:22;;;;;;;5.87;3.20;;;;;;;13.21;67.52;100313.59;5011344;28;20208;-80
2023/06/05 01:27:10;;;;;;;5.00;2.40;;;;;;;13.12;66.42;100306.41;5011134;28;20182;-79
2023/06/05 01:29:44;;;;;;;3.67;2.40;;;;;;;13.14;67.06;100314.09;5000920;28;20242;-80
2023/06/05 01:32:18;;;;;;;3.07;2.13;;;;;;;13.06;67.45;100309.38;5016386;28;20252;-80
2023/06/05 01:34:48;;;;;;;4.50;2.80;;;;;;;13.10;69.45;100307.44;5011444;28;20204;-79
2023/06/05 01:37:18;;;;;;;2.20;1.90;;;;;;;13.06;70.08;100299.03;4999111;28;20201;-79
2023/06/05 01:39:46;;;;;;;6.63;2.03;;;;;;;13.00;70.40;100305.44;5012529;28;20274;-79
2023/06/05 01:42:13;;;;;;;3.43;2.27;;;;;;;12.94;71.89;100303.22;5017720;28;20277;-76
2023/06/05 01:44:40;;;;;;;2.57;1.93;;;;;;;12.96;70.94;100301.38;5012519;28;20214;-78
2023/06/05 01:47:06;;;;;;;2.20;1.90;;;;;;;12.88;71.90;100306.19;5010880;28;20232;-78
2023/06/05 01:49:32;;;;;;;3.23;2.27;;;;;;;12.78;73.77;100299.91;5010921;28;20549;-79
2023/06/05 01:51:57;;;;;;;2.50;1.70;;;;;;;12.73;74.97;100295.84;5008315;28;20233;-78
2023/06/05 01:54:23;;;;;;;3.47;2.40;;;;;;;12.72;74.58;100289.03;5004903;28;20218;-78
2023/06/05 01:56:49;;;;;;;3.57;2.43;;;;;;;12.79;73.63;100292.06;5012115;28;20278;-78
2023/06/05 01:59:15;;;;;;;4.83;2.17;;;;;;;12.84;69.09;100295.22;5012381;28;20649;-79
2023/06/05 02:01:43;;;;;;;2.10;1.90;;;;;;;12.77;70.54;100296.50;5014782;28;20226;-79
2023/06/05 02:04:09;;;;;;;3.03;2.00;;;;;;;12.68;72.50;100294.47;5010178;28;20568;-77
2023/06/05 02:06:41;;;;;;;3.50;2.23;;;;;;;12.63;71.29;100292.16;5008734;28;20198;-78
2023/06/05 02:09:08;;;;;;;2.87;1.93;;;;;;;12.63;71.25;100292.16;5006615;28;20201;-79
2023/06/05 02:11:34;;;;;;;2.97;1.73;;;;;;;12.58;71.97;100284.69;5003468;28;20716;-78
2023/06/05 02:13:59;;;;;;;4.07;2.10;;;;;;;12.51;71.98;100285.97;5002418;28;20178;-78
2023/06/05 02:16:25;;;;;;;2.83;2.33;;;;;;;12.49;72.55;100277.53;5011578;28;20182;-78
2023/06/05 02:18:50;;;;;;;9.10;2.97;;;;;;;12.49;76.01;100285.25;5010525;28;20711;-80
2023/06/05 02:21:16;;;;;;;1.83;1.70;;;;;;;12.41;78.03;100285.69;5011115;28;20253;-79
2023/06/05 02:23:43;;;;;;;2.30;1.93;;;;;;;12.42;76.32;100289.13;5017354;28;20260;-78
2023/06/05 02:26:08;;;;;;;2.60;2.27;;;;;;;12.34;79.58;100281.00;5011606;28;20186;-78
2023/06/05 02:28:33;;;;;;;3.17;1.90;;;;;;;12.34;79.42;100278.41;5008066;28;20181;-78
2023/06/05 02:30:59;;;;;;;2.10;1.80;;;;;;;12.25;79.64;100274.63;4998342;28;20233;-79
2023/06/05 02:33:24;;;;;;;2.87;1.90;;;;;;;12.26;80.69;100269.38;5018737;28;20179;-79
2023/06/05 02:35:50;;;;;;;3.00;1.63;;;;;;;12.21;81.58;100281.72;5002871;28;20187;-80
2023/06/05 02:38:16;;;;;;;4.23;2.03;;;;;;;12.19;82.89;100280.16;5006607;28;20201;-80
2023/06/05 02:40:41;;;;;;;2.60;1.67;;;;;;;12.19;82.35;100277.56;5006745;28;20748;-79
2023/06/05 02:43:08;;;;;;;3.57;2.10;;;;;;;12.09;82.48;100278.13;5021534;28;20206;-80
2023/06/05 02:45:33;;;;;;;2.90;1.83;;;;;;;12.04;83.70;100281.88;5011336;28;20183;-79
2023/06/05 02:47:58;;;;;;;3.10;2.00;;;;;;;12.02;83.71;100286.28;5011631;28;20547;-80
2023/06/05 02:50:24;;;;;;;2.43;2.20;;;;;;;11.92;82.55;100284.22;5002637;28;20350;-80
2023/06/05 02:52:49;;;;;;;5.10;1.90;;;;;;;11.82;85.50;100277.09;5009800;28;20206;-80
2023/06/05 02:55:16;;;;;;;4.67;2.43;;;;;;;11.93;84.70;100283.31;5011291;28;20206;-80
2023/06/05 02:57:41;;;;;;;4.07;2.10;;;;;;;11.92;84.02;100275.63;5010207;28;20368;-81
2023/06/05 03:00:14;;;;;;;5.63;2.13;;;;;;;11.92;83.45;100284.22;4991487;28;20258;-80
2023/06/05 03:02:40;;;;;;;2.30;2.07;;;;;;;11.92;84.74;100278.22;5010016;28;20194;-81
2023/06/05 03:05:06;;;;;;;3.27;1.70;;;;;;;11.95;84.53;100281.44;5009751;28;20177;-80
2023/06/05 03:07:33;;;;;;;3.70;2.00;;;;;;;11.90;85.39;100273.16;5010052;28;20223;-80
2023/06/05 03:09:58;;;;;;;2.37;1.93;;;;;;;11.86;86.90;100279.41;5011638;28;20221;-80
2023/06/05 03:12:24;;;;;;;2.10;1.70;;;;;;;11.88;87.76;100271.59;5016234;28;20238;-80
2023/06/05 03:14:49;;;;;;;2.13;1.83;;;;;;;11.82;87.21;100274.50;5011568;28;20257;-81
2023/06/05 03:17:14;;;;;;;3.60;2.33;;;;;;;11.78;89.02;100273.84;5001224;28;20226;-80
2023/06/05 03:19:40;;;;;;;3.47;2.07;;;;;;;11.83;89.35;100277.00;5011403;28;20297;-81
2023/06/05 03:22:05;;;;;;;5.37;2.13;;;;;;;11.78;88.53;100273.84;5012701;28;20241;-80
2023/06/05 03:24:30;;;;;;;5.33;2.60;;;;;;;11.81;89.28;100276.25;5002194;28;20182;-79
2023/06/05 03:26:56;;;;;;;2.50;2.00;;;;;;;11.73;88.87;100275.88;5010885;28;20185;-78
2023/06/05 03:29:21;;;;;;;3.20;1.90;;;;;;;11.73;89.76;100273.28;5001573;28;20254;-80
2023/06/05 03:31:46;;;;;;;2.10;1.80;;;;;;;11.66;91.77;100277.13;4975033;28;20233;-80
2023/06/05 03:34:12;;;;;;;3.07;2.30;;;;;;;11.67;92.97;100277.06;5011054;28;20845;-80
2023/06/05 03:36:39;;;;;;;4.53;2.10;;;;;;;11.65;93.83;100280.59;5009145;28;20215;-81
2023/06/05 03:39:05;;;;;;;3.17;2.03;;;;;;;11.68;93.22;100281.25;5010186;28;20611;-79
2023/06/05 03:41:30;;;;;;;5.67;2.33;;;;;;;11.71;92.18;100286.25;5011909;28;20317;-78
2023/06/05 03:43:56;;;;;;;2.67;1.80;;;;;;;11.76;91.05;100289.41;5015444;28;20564;-78
2023/06/05 03:46:23;;;;;;;2.10;1.90;;;;;;;11.81;90.77;100286.56;5012717;28;20178;-79
2023/06/05 03:48:48;;;;;;;7.43;1.93;;;;;;;11.91;91.38;100279.97;5013695;28;20221;-79
2023/06/05 03:51:18;;;;;;;3.20;2.00;;;;;;;12.00;91.20;100281.22;5013522;28;20234;-79
2023/06/05 03:53:46;;;;;;;3.03;2.10;;;;;;;12.01;89.49;100279.50;5020535;28;20197;-78
2023/06/05 03:56:15;;;;;;;5.37;2.00;;;;;;;12.10;89.28;100277.19;5013938;28;20321;-80
2023/06/05 03:58:41;;;;;;;4.20;1.80;;;;;;;12.17;88.68;100274.25;5013325;28;20190;-80
2023/06/05 04:01:06;;;;;;;3.47;1.70;;;;;;;12.23;90.44;100284.19;5012363;28;20221;-80
2023/06/05 04:03:32;;;;;;;3.00;2.10;;;;;;;12.26;90.45;100284.03;5021397;28;20564;-80
2023/06/05 04:05:57;;;;;;;4.60;2.43;;;;;;;12.36;88.40;100279.16;5012625;28;20193;-79
2023/06/05 04:08:24;;;;;;;3.17;2.20;;;;;;;12.45;86.87;100285.53;5014569;28;20198;-80
2023/06/05 04:10:50;;;;;;;4.90;2.10;;;;;;;12.47;88.65;100284.50;5010132;28;20320;-79
2023/06/05 04:13:15;;;;;;;3.13;2.17;;;;;;;12.57;91.54;100287.38;5012808;28;20757;-78
2023/06/05 04:15:40;;;;;;;2.97;2.00;;;;;;;12.65;90.37;100287.75;5013649;28;20182;-80
2023/06/05 04:18:05;;;;;;;2.80;2.13;;;;;;;12.72;88.55;100286.44;5014199;28;20183;-80
2023/06/05 04:20:31;;;;;;;2.13;1.77;;;;;;;12.76;89.14;100287.09;5005667;28;20252;-80
2023/06/05 04:22:56;;;;;;;2.40;2.00;;;;;;;12.88;89.91;100288.91;5013019;28;20210;-80
2023/06/05 04:25:21;;;;;;;4.57;2.03;;;;;;;12.97;88.98;100289.28;5014125;28;20218;-80
2023/06/05 04:27:51;;;;;;;3.30;1.80;;;;;;;13.07;87.19;100287.78;5014212;28;20208;-80
2023/06/05 04:30:17;;;;;;;4.17;1.80;;;;;;;13.15;85.54;100279.59;4991183;28;20277;-80
2023/06/05 04:32:42;;;;;;;2.30;2.10;;;;;;;13.25;84.54;100296.16;5027379;28;20186;-82
2023/06/05 04:35:09;;;;;;;4.77;2.10;;;;;;;13.33;84.11;100293.09;5013525;28;20626;-79
2023/06/05 04:37:36;;;;;;;4.53;2.30;;;;;;;13.42;84.08;100289.13;5014120;28;20252;-79
2023/06/05 04:40:09;;;;;;;3.23;1.87;;;;;;;13.49;85.73;100287.81;5013854;28;20262;-81
2023/06/05 04:42:36;;;;;;;4.40;2.73;;;;;;;13.59;85.56;100291.44;5002007;28;20222;-81
2023/06/05 04:45:07;;;;;;;4.70;2.00;;;;;;;13.69;81.95;100292.53;5011851;28;20175;-79
2023/06/05 04:47:33;;;;;;;2.20;1.67;;;;;;;13.88;81.50;100288.75;5014006;28;20240;-79
2023/06/05 04:50:00;;;;;;;2.50;1.97;;;;;;;14.05;80.99;100292.78;5013888;28;20183;-80
2023/06/05 04:52:26;;;;;;;3.17;1.70;;;;;;;14.18;81.95;100291.06;5001885;28;20231;-81
2023/06/05 04:54:52;;;;;;;3.77;2.17;;;;;;;14.34;80.14;100290.06;5013636;28;20171;-78
2023/06/05 04:57:18;;;;;;;4.83;2.00;;;;;;;14.50;78.82;100290.66;5012274;28;20855;-78
2023/06/05 04:59:43;;;;;;;2.10;1.90;;;;;;;14.69;84.04;100294.59;5012021;28;20175;-78
2023/06/05 05:02:09;;;;;;;5.80;2.00;;;;;;;14.85;79.27;100290.00;5018425;28;20630;-78
2023/06/05 05:04:34;;;;;;;3.23;1.80;;;;;;;15.09;78.76;100291.00;5013683;28;20252;-78
2023/06/05 05:07:01;;;;;;;3.13;2.00;;;;;;;15.31;76.64;100298.09;5011479;28;20186;-78
2023/06/05 05:09:32;;;;;;;4.87;2.53;;;;;;;15.48;69.89;100299.47;5012128;28;20207;-78
2023/06/05 05:11:58;;;;;;;4.50;2.10;;;;;;;15.67;73.54;100295.56;5017613;28;21157;-78
2023/06/05 05:14:26;;;;;;;3.93;2.03;;;;;;;15.86;75.07;100298.47;5011579;28;20270;-78
2023/06/05 05:16:52;;;;;;;2.93;2.00;;;;;;;15.82;68.30;100295.25;5011243;28;20179;-77
2023/06/05 05:19:17;;;;;;;3.50;2.37;;;;;;;15.98;64.52;100301.94;5013080;28;20171;-77
2023/06/05 05:21:42;;;;;;;4.07;1.87;;;;;;;16.19;61.81;100298.69;5015744;28;20236;-77
2023/06/05 05:24:08;;;;;;;7.63;2.13;;;;;;;16.42;60.08;100297.75;5011708;28;20253;-77
2023/06/05 05:26:33;;;;;;;9.20;2.10;;;;;;;16.45;63.31;100297.53;5012153;28;20651;-77
2023/06/05 05:28:58;;;;;;;3.50;2.10;;;;;;;16.60;62.45;100303.31;5011470;28;20179;-77
2023/06/05 05:31:23;;;;;;;3.00;2.23;;;;;;;16.54;60.72;100298.59;5012331;28;20229;-74
2023/06/05 05:33:49;;;;;;;2.93;2.27;;;;;;;16.82;61.37;100304.25;5011311;28;20229;-79
2023/06/05 05:36:14;;;;;;;6.27;2.47;;;;;;;16.99;55.56;100297.75;5012093;28;20601;-74
2023/06/05 05:38:40;;;;;;;6.73;2.43;;;;;;;17.20;53.70;100303.03;5012857;28;20183;-74
2023/06/05 05:41:05;;;;;;;3.00;2.30;;;;;;;17.56;55.14;100306.25;5005971;28;20686;-76
2023/06/05 05:43:31;;;;;;;7.03;2.53;;;;;;;17.52;53.01;100306.63;5005843;28;20217;-77
2023/06/05 05:45:56;;;;;;;5.50;2.27;;;;;;;17.79;55.42;100305.34;5012410;28;20218;-77
2023/06/05 05:48:22;;;;;;;4.73;2.10;;;;;;;18.14;52.42;100307.66;5012622;28;20190;-77
2023/06/05 05:50:48;;;;;;;7.83;2.27;;;;;;;18.17;49.32;100302.19;5004442;28;20254;-77
2023/06/05 05:53:13;;;;;;;4.83;2.20;;;;;;;18.08;50.49;100304.75;5022033;28;20593;-77
2023/06/05 05:55:39;;;;;;;11.83;2.73;;;;;;;18.45;49.67;100307.69;5012177;28;20532;-78
2023/06/05 05:58:04;;;;;;;3.30;2.13;;;;;;;18.65;47.78;100311.19;5011139;28;20259;-77
2023/06/05 06:00:29;;;;;;;5.53;2.23;;;;;;;19.45;46.41;100313.06;5005849;28;20711;-78
2023/06/05 06:02:55;;;;;;;4.77;2.70;;;;;;;20.32;43.83;100316.59;5024406;28;20237;-77
2023/06/05 06:05:20;;;;;;;5.57;2.30;;;;;;;20.68;40.89;100306.28;5012065;28;20226;-78
2023/06/05 06:07:46;;;;;;;5.70;2.23;;;;;;;20.97;39.28;100315.78;5012027;28;20260;-77
2023/06/05 06:10:12;;;;;;;4.00;2.57;;;;;;;21.62;38.10;100316.63;5003075;28;20193;-77
2023/06/05 06:12:37;;;;;;;3.83;2.30;;;;;;;21.86;36.22;100322.06;5026186;28;20698;-77
2023/06/05 06:15:04;;;;;;;5.20;2.03;;;;;;;22.50;34.86;100327.09;5012026;28;20194;-78
2023/06/05 06:17:29;;;;;;;6.83;2.00;;;;;;;22.62;35.15;100325.00;5011312;28;20548;-79
2023/06/05 06:19:55;;;;;;;3.90;1.83;;;;;;;24.15;32.30;100327.41;5012450;28;20183;-78
2023/06/05 06:22:20;;;;;;;5.07;2.20;;;;;;;24.52;31.91;100322.53;5017348;28;20732;-79
2023/06/05 06:24:46;;;;;;;4.85;2.00;;;;;;;24.22;31.72;100330.19;5012154;28;20182;-79
2023/06/05 06:27:12;;;;;;;3.97;1.60;;;;;;;23.59;30.61;100339.53;5011865;28;20269;-80
2023/06/05 06:29:47;;;;;;;4.22;1.90;;;;;;;22.67;32.46;100330.59;5000091;28;20179;-81
2023/06/05 06:32:12;;;;;;;4.17;2.07;;;;;;;23.07;32.13;100325.66;5001575;28;20685;-79
2023/06/05 06:34:38;;;;;;;2.13;1.70;;;;;;;23.32;31.82;100326.56;5012213;28;20193;-80
2023/06/05 06:37:04;;;;;;;7.63;1.63;;;;;;;23.97;31.79;100334.66;5010304;28;20564;-79
2023/06/05 06:39:29;;;;;;;2.37;1.80;;;;;;;23.77;31.37;100332.34;5010934;28;20187;-78
2023/06/05 06:41:55;;;;;;;3.90;1.63;;;;;;;23.30;31.99;100328.53;5015766;28;20297;-78
2023/06/05 06:44:21;;;;;;;6.22;1.90;;;;;;;24.85;31.11;100338.22;5010422;28;20202;-79
2023/06/05 06:46:46;;;;;;;5.70;2.60;;;;;;;25.03;30.61;100332.72;5011372;28;20228;-78
2023/06/05 06:49:12;;;;;;;5.60;1.60;;;;;;;25.42;28.49;100331.03;5010559;28;20194;-80
2023/06/05 06:51:37;;;;;;;3.67;1.83;;;;;;;25.17;29.24;100331.16;5013751;28;20232;-79
2023/06/05 06:54:02;;;;;;;6.03;1.58;;;;;;;25.82;28.83;100328.22;5015205;28;20630;-80
2023/06/05 06:56:27;;;;;;;4.95;1.88;;;;;;;26.49;27.48;100337.16;5009886;28;20218;-79
2023/06/05 06:58:54;;;;;;;9.18;1.95;;;;;;;25.60;28.43;100331.53;5010685;28;20233;-80
2023/06/05 07:01:19;;;;;;;5.25;1.73;;;;;;;25.55;27.79;100336.53;4989559;28;20742;-79
2023/06/05 07:03:45;;;;;;;2.45;1.58;;;;;;;25.51;27.63;100339.69;5001194;28;20293;-79
2023/06/05 07:06:11;;;;;;;2.95;1.75;;;;;;;25.62;28.56;100332.16;5011295;28;20557;-79
2023/06/05 07:08:37;;;;;;;5.90;1.63;;;;;;;25.51;27.70;100331.78;5011660;28;20183;-78
2023/06/05 07:11:02;;;;;;;3.17;1.70;;;;;;;25.08;27.67;100333.00;5002953;28;20209;-79
2023/06/05 07:13:27;;;;;;;4.10;2.45;;;;;;;25.13;27.98;100340.38;5018801;28;20566;-80
2023/06/05 07:15:53;;;;;;;5.20;1.60;;;;;;;24.79;27.52;100342.34;5007260;28;20222;-78
2023/06/05 07:18:19;;;;;;;4.38;1.98;;;;;;;25.31;27.72;100342.75;5019650;28;20183;-77
2023/06/05 07:20:45;;;;;;;5.20;2.03;;;;;;;25.23;27.67;100334.88;5005750;28;20225;-79
2023/06/05 07:23:10;;;;;;;3.42;1.42;;;;;;;25.58;27.28;100338.78;5013525;28;20565;-79
2023/06/05 07:25:37;;;;;;;4.55;1.73;;;;;;;26.05;26.75;100344.81;5013869;28;20189;-79
2023/06/05 07:28:03;;;;;;;3.20;1.70;;;;;;;25.97;26.39;100336.16;5029848;28;20182;-80
2023/06/05 07:30:28;;;;;;;3.83;1.67;;;;;;;27.33;24.84;100333.25;5002243;28;20234;-81
2023/06/05 07:32:53;;;;;;;4.63;1.90;;;;;;;27.42;25.37;100334.78;5015316;28;20175;-78
2023/06/05 07:35:19;;;;;;;5.82;1.95;;;;;;;27.47;25.00;100334.22;5015418;28;20274;-78
2023/06/05 07:37:44;;;;;;;3.55;1.60;;;;;;;29.42;23.24;100336.09;5015195;28;20630;-78
2023/06/05 07:40:10;;;;;;;6.38;1.67;;;;;;;28.38;23.90;100338.78;5006102;28;20312;-79
2023/06/05 07:42:35;;;;;;;8.32;1.83;;;;;;;27.28;25.07;100333.03;5013679;28;20542;-80
2023/06/05 07:45:00;;;;;;;5.30;1.80;;;;;;;29.24;22.89;100331.38;5015173;28;20190;-79
2023/06/05 07:47:27;;;;;;;2.88;1.98;;;;;;;26.53;25.21;100328.69;5014236;28;20616;-82
2023/06/05 07:49:59;;;;;;;2.88;1.90;;;;;;;26.86;25.11;100330.13;5014287;28;20190;-83
2023/06/05 07:52:25;;;;;;;4.00;1.70;;;;;;;26.76;25.47;100338.34;5003825;28;20593;-77
2023/06/05 07:54:50;;;;;;;5.97;1.70;;;;;;;27.82;24.53;100335.16;5013277;28;20638;-82
2023/06/05 07:57:16;;;;;;;6.25;1.63;;;;;;;28.71;23.78;100340.00;5015019;28;20225;-77
2023/06/05 07:59:42;;;;;;;2.72;1.95;;;;;;;28.54;23.21;100348.22;5015177;28;20182;-79
2023/06/05 08:02:07;;;;;;;4.43;1.77;;;;;;;28.60;23.81;100341.31;5005664;28;20238;-79
2023/06/05 08:04:33;;;;;;;2.78;1.70;;;;;;;28.05;24.21;100347.31;5014961;28;20178;-83
2023/06/05 08:06:58;;;;;;;7.53;2.00;;;;;;;28.15;24.52;100331.94;5014403;28;20721;-83
2023/06/05 08:09:24;;;;;;;3.60;1.90;;;;;;;28.57;24.58;100337.25;5014966;28;20523;-84
2023/06/05 08:11:49;;;;;;;3.05;1.73;;;;;;;28.98;23.75;100338.25;5015287;28;20226;-87
2023/06/05 08:14:14;;;;;;;5.72;1.63;;;;;;;29.56;23.71;100339.56;5016112;28;20630;-88
2023/06/05 08:16:39;;;;;;;11.43;2.20;;;;;;;29.54;23.32;100339.78;5012786;28;20634;-88
2023/06/05 08:19:06;;;;;;;5.00;2.22;;;;;;;29.06;23.32;100343.38;5013188;28;20513;-87
2023/06/05 08:21:31;;;;;;;3.25;1.85;;;;;;;28.37;23.93;100349.53;5005687;28;20233;-85
2023/06/05 08:23:56;;;;;;;2.25;1.48;;;;;;;28.26;23.92;100343.00;5018193;28;20201;-86
2023/06/05 08:26:22;;;;;;;6.25;1.45;;;;;;;28.05;25.14;100335.94;5012880;28;20194;-86
2023/06/05 08:28:47;;;;;;;6.07;1.73;;;;;;;29.46;23.53;100329.41;5011050;28;20190;-87
2023/06/05 08:31:13;;;;;;;2.55;1.80;;;;;;;31.52;21.90;100325.47;5004328;28;20994;-88
2023/06/05 08:33:41;;;;;;;3.13;2.05;;;;;;;30.35;22.39;100329.09;5014241;28;20585;-86
2023/06/05 08:36:06;;;;;;;2.85;1.38;;;;;;;30.18;22.52;100324.25;5019059;28;20182;-82
2023/06/05 08:38:33;;;;;;;2.20;1.60;;;;;;;30.24;22.19;100325.25;5013389;28;20185;-81
2023/06/05 08:41:10;;;;;;;3.10;1.52;;;;;;;30.69;21.97;100327.97;5005567;28;20237;-81
2023/06/05 08:43:40;;;;;;;3.60;2.33;;;;;;;30.21;22.44;100320.38;5015842;28;20199;-68
2023/06/05 08:46:08;;;;;;;8.50;2.13;;;;;;;30.01;23.59;100320.44;5025900;28;20175;-64
2023/06/05 08:48:40;;;;;;;3.67;1.90;;;;;;;29.42;24.00;100323.69;5013941;28;20187;-58
2023/06/05 08:51:09;;;;;;;7.93;2.15;;;;;;;27.70;25.90;100318.19;5005048;28;20225;-57
2023/06/05 08:53:35;;;;;;;4.40;1.80;;;;;;;27.24;26.18;100314.09;5012718;28;20278;-57
2023/06/05 08:56:01;;;;;;;5.10;2.10;;;;;;;27.92;26.23;100324.25;5011950;28;20264;-57
2023/06/05 08:58:26;;;;;;;3.60;1.80;;;;;;;28.67;24.81;100321.84;5013194;28;20650;-57
2023/06/05 09:00:53;;;;;;;6.47;2.03;;;;;;;28.56;25.17;100325.03;5009261;28;20229;-58
2023/06/05 09:03:20;;;;;;;4.75;1.83;;;;;;;30.23;23.52;100319.13;5011639;28;20202;-58
2023/06/05 09:05:46;;;;;;;6.13;2.00;;;;;;;29.67;24.73;100315.13;5012704;28;20182;-57
2023/06/05 09:08:12;;;;;;;2.08;1.88;;;;;;;28.58;25.30;100314.22;5012302;28;20244;-57
2023/06/05 09:10:37;;;;;;;6.22;1.80;;;;;;;29.57;24.32;100312.06;4985769;28;20231;-59
2023/06/05 09:13:03;;;;;;;7.22;2.00;;;;;;;30.05;24.16;100306.53;5018890;28;20303;-58
2023/06/05 09:15:33;;;;;;;2.88;1.75;;;;;;;29.94;23.96;100309.81;5012816;28;20218;-59
2023/06/05 09:18:10;;;;;;;13.73;1.92;;;;;;;28.85;25.79;100314.38;5011632;28;20178;-58
2023/06/05 09:20:40;;;;;;;2.80;1.83;;;;;;;28.81;25.30;100314.78;5004668;28;20312;-57
2023/06/05 09:23:28;;;;;;;4.18;2.35;;;;;;;29.35;24.58;100308.78;5023081;28;20690;-58
2023/06/05 09:25:56;;;;;;;2.50;2.05;;;;;;;30.24;24.52;100307.50;5012466;28;20609;-57
2023/06/05 09:28:22;;;;;;;12.10;2.17;;;;;;;30.07;24.78;100299.19;5011866;28;20186;-57
2023/06/05 09:30:58;;;;;;;2.80;2.00;;;;;;;29.82;24.24;100299.00;4998610;28;20236;-56
2023/06/05 09:33:25;;;;;;;5.90;1.98;;;;;;;29.20;25.20;100308.94;5012879;28;20646;-56
2023/06/05 09:36:07;;;;;;;1.55;1.45;;;;;;;30.06;24.70;100294.91;5012264;28;20588;-56
2023/06/05 09:38:33;;;;;;;5.28;2.08;;;;;;;29.97;24.45;100298.81;5012557;28;20600;-58
2023/06/05 09:41:03;;;;;;;7.20;1.83;;;;;;;30.75;24.27;100292.63;5004352;28;20226;-59
2023/06/05 09:43:28;;;;;;;4.03;2.25;;;;;;;30.04;25.04;100304.91;5011017;28;20329;-59
2023/06/05 09:45:53;;;;;;;6.38;2.05;;;;;;;31.22;24.35;100299.50;5012101;28;20187;-59
2023/06/05 09:48:19;;;;;;;2.65;1.92;;;;;;;33.07;22.21;100306.78;5012432;28;20187;-60
2023/06/05 09:50:45;;;;;;;6.75;2.05;;;;;;;31.77;23.30;100306.03;5002962;28;20234;-58
2023/06/05 09:53:14;;;;;;;9.80;2.47;;;;;;;32.40;22.67;100309.47;5010793;28;20241;-58
2023/06/05 09:55:40;;;;;;;3.97;2.22;;;;;;;31.49;23.61;100300.09;5004139;28;20185;-59
2023/06/05 09:58:10;;;;;;;3.60;2.10;;;;;;;31.13;24.19;100288.31;5012640;28;20179;-58
2023/06/05 10:00:38;;;;;;;4.40;1.70;;;;;;;30.61;24.63;100296.38;5006585;28;20221;-58
2023/06/05 10:03:13;;;;;;;4.75;2.20;;;;;;;29.29;26.11;100286.59;5022207;28;20206;-58
2023/06/05 10:05:40;;;;;;;5.72;2.35;;;;;;;30.62;24.68;100289.22;5012007;28;20190;-58
2023/06/05 10:08:06;;;;;;;3.53;2.30;;;;;;;31.39;23.96;100286.50;5012415;28;20187;-58
2023/06/05 10:10:33;;;;;;;4.07;1.80;;;;;;;33.30;22.43;100294.56;5005469;28;20244;-62
2023/06/05 10:13:00;;;;;;;5.03;2.22;;;;;;;31.61;23.76;100286.94;5023499;28;20284;-61
2023/06/05 10:15:26;;;;;;;5.47;2.40;;;;;;;31.45;24.07;100275.00;5003634;28;20239;-62
2023/06/05 10:17:52;;;;;;;3.28;1.88;;;;;;;31.66;23.63;100284.44;5011520;28;20218;-62
2023/06/05 10:20:17;;;;;;;4.95;2.60;;;;;;;31.63;23.73;100289.34;5003569;28;20573;-62
2023/06/05 10:22:44;;;;;;;6.13;2.20;;;;;;;31.02;23.69;100291.66;5024936;28;20206;-62
2023/06/05 10:25:12;;;;;;;3.63;2.25;;;;;;;31.66;22.77;100284.44;5011793;28;20187;-62
2023/06/05 10:28:03;;;;;;;3.80;2.10;;;;;;;32.82;21.38;100289.09;5012025;28;20661;-62
2023/06/05 10:30:53;;;;;;;2.80;1.98;;;;;;;30.02;23.11;100282.25;4983531;28;20230;-62
2023/06/05 10:33:38;;;;;;;6.05;2.25;;;;;;;30.15;23.96;100284.88;5014526;28;20187;-62
2023/06/05 10:36:16;;;;;;;5.40;2.40;;;;;;;30.64;23.61;100281.84;5000412;28;20183;-62
2023/06/05 10:38:41;;;;;;;3.88;2.17;;;;;;;30.24;24.85;100283.63;5006130;28;20300;-61
2023/06/05 10:41:07;;;;;;;4.47;1.77;;;;;;;28.38;25.31;100282.41;5010006;28;20218;-61
2023/06/05 10:43:36;;;;;;;5.55;2.03;;;;;;;27.18;26.25;100283.97;5018335;28;20206;-61
2023/06/05 10:46:22;;;;;;;4.70;1.95;;;;;;;26.17;27.96;100273.22;5010110;28;20178;-62
2023/06/05 10:49:19;;;;;;;4.18;1.98;;;;;;;25.28;27.06;100266.75;5011492;28;20612;-63
2023/06/05 10:51:49;;;;;;;23.70;6.68;;;;;;;25.44;30.20;100263.19;5003594;28;20229;-54
2023/06/05 10:54:23;;;;;;;8.43;3.08;;;;;;;25.63;27.82;100259.25;5010379;28;20182;-55
2023/06/05 10:56:56;;;;;;;5.30;2.25;;;;;;;25.58;28.75;100257.16;5008351;28;20265;-55
2023/06/05 10:59:23;;;;;;;4.25;2.40;;;;;;;25.51;28.69;100250.94;5005200;28;20197;-54
2023/06/05 11:02:16;;;;;;;3.80;1.85;;;;;;;24.94;27.50;100247.75;4980658;28;20234;-67
2023/06/05 11:04:42;;;;;;;2.78;1.95;;;;;;;25.24;28.41;100253.13;5013907;28;20182;-60
2023/06/05 11:07:26;;;;;;;3.67;2.00;;;;;;;25.29;28.37;100256.03;5014988;28;20257;-60
2023/06/05 11:10:09;;;;;;;4.55;1.70;;;;;;;24.95;28.43;100246.72;5005290;28;20190;-60
2023/06/05 11:12:35;;;;;;;2.95;1.95;;;;;;;24.93;29.81;100248.72;5003787;28;20242;-61
2023/06/05 11:15:01;;;;;;;2.97;1.98;;;;;;;25.20;30.05;100237.84;5014577;28;20183;-60
2023/06/05 11:17:29;;;;;;;5.22;2.00;;;;;;;25.16;27.99;100244.47;5004593;28;20254;-59
2023/06/05 11:19:54;;;;;;;2.63;1.65;;;;;;;24.93;28.44;100254.00;5015526;28;20190;-59
2023/06/05 11:22:20;;;;;;;3.42;2.05;;;;;;;25.03;28.52;100242.41;5020308;28;20232;-61
2023/06/05 11:24:45;;;;;;;3.15;1.77;;;;;;;24.92;27.19;100244.47;5015535;28;20187;-59